Time;durP1;ratioP1;P1;durP2;ratioP2;P2;SDS_P1;SDS_P2;PMS_P1;PMS_P2;Temp;Humidity;BMP_temperature;BMP_pressure;BME280_temperature;BME280_humidity;BME280_pressure;Samples;Min_cycle;Max_cycle;Signal;HPM_P1;HPM_P2
2022/06/11 00:01:12;;;;;;;;;;;15.30;99.90;;;;;;5006970;28;19913;-73
2022/06/11 00:03:37;;;;;;;;;;;15.30;99.90;;;;;;5018947;28;19971;-73
2022/06/11 00:06:03;;;;;;;;;;;15.30;99.90;;;;;;4992109;28;20018;-73
2022/06/11 00:08:30;;;;;;;;;;;15.30;99.90;;;;;;5019421;28;19925;-74
2022/06/11 00:10:55;;;;;;;;;;;15.30;99.90;;;;;;5020863;28;19917;-74
2022/06/11 00:13:24;;;;;;;;;;;15.40;99.90;;;;;;4994998;28;19917;-74
2022/06/11 00:15:51;;;;;;;;;;;15.30;99.90;;;;;;5017697;28;19923;-73
2022/06/11 00:18:17;;;;;;;;;;;15.30;99.90;;;;;;5021219;28;19921;-74
2022/06/11 00:20:43;;;;;;;;;;;15.20;99.90;;;;;;5022827;28;19913;-73
2022/06/11 00:23:08;;;;;;;;;;;15.20;99.90;;;;;;5022362;28;19921;-74
2022/06/11 00:25:34;;;;;;;;;;;15.10;99.90;;;;;;4997494;28;19928;-73
2022/06/11 00:28:01;;;;;;;;;;;15.10;99.90;;;;;;5022564;28;20255;-74
2022/06/11 00:30:26;;;;;;;;;;;15.10;99.90;;;;;;5021834;28;19940;-74
2022/06/11 00:32:52;;;;;;;;;;;15.00;99.90;;;;;;5021977;28;19945;-74
2022/06/11 00:35:18;;;;;;;;;;;15.00;99.90;;;;;;5018089;28;19928;-74
2022/06/11 00:37:44;;;;;;;;;;;14.90;99.90;;;;;;4991912;28;19975;-74
2022/06/11 00:40:10;;;;;;;;;;;14.90;99.90;;;;;;5004057;28;19928;-73
2022/06/11 00:42:36;;;;;;;;;;;14.80;99.90;;;;;;5020282;28;20053;-73
2022/06/11 00:45:19;;;;;;;;;;;14.80;99.90;;;;;;5018131;28;20008;-74
2022/06/11 00:47:47;;;;;;;;;;;14.90;99.90;;;;;;5012921;28;20011;-73
2022/06/11 00:50:22;;;;;;;;;;;15.00;99.90;;;;;;5019762;28;19921;-73
2022/06/11 00:52:48;;;;;;;;;;;15.00;99.90;;;;;;5017886;28;20796;-74
2022/06/11 00:55:16;;;;;;;;;;;15.00;99.90;;;;;;5022660;28;19921;-74
2022/06/11 00:57:44;;;;;;;;;;;14.90;99.90;;;;;;5015762;28;20007;-73
2022/06/11 01:00:15;;;;;;;;;;;14.90;99.90;;;;;;5010537;28;19925;-74
2022/06/11 01:02:42;;;;;;;;;;;14.80;99.90;;;;;;5011508;28;19925;-75
2022/06/11 01:05:08;;;;;;;;;;;14.80;99.90;;;;;;5011828;28;19913;-73
2022/06/11 01:07:43;;;;;;;;;;;14.80;99.90;;;;;;4987415;28;20825;-74
2022/06/11 01:10:27;;;;;;;;;;;14.80;99.90;;;;;;4989587;28;19917;-73
2022/06/11 01:13:01;;;;;;;;;;;14.80;99.90;;;;;;5015186;28;19996;-75
2022/06/11 01:15:33;;;;;;;;;;;14.70;99.90;;;;;;4939202;28;20316;-74
2022/06/11 01:18:34;;;;;;;;;;;14.80;99.90;;;;;;5013366;28;19976;-73
2022/06/11 01:21:05;;;;;;;;;;;14.70;99.90;;;;;;4887410;29;20538;-73
2022/06/11 01:23:31;;;;;;;;;;;14.70;99.90;;;;;;4901682;29;19923;-73
2022/06/11 01:26:10;;;;;;;;;;;14.80;99.90;;;;;;4906659;29;19922;-73
2022/06/11 01:28:54;;;;;;;;;;;14.70;99.90;;;;;;4871429;29;19968;-74
2022/06/11 01:31:25;;;;;;;;;;;14.70;99.90;;;;;;4902937;29;20307;-73
2022/06/11 01:34:00;;;;;;;;;;;14.70;99.90;;;;;;4887156;29;20299;-72
2022/06/11 01:36:32;;;;;;;;;;;14.80;99.90;;;;;;4901803;29;19915;-72
2022/06/11 01:38:57;;;;;;;;;;;14.80;99.90;;;;;;4903382;29;19955;-72
2022/06/11 01:41:33;;;;;;;;;;;14.80;99.90;;;;;;4901021;29;19965;-73
2022/06/11 01:44:00;;;;;;;;;;;14.70;99.90;;;;;;4904816;29;19985;-73
2022/06/11 01:46:28;;;;;;;;;;;14.70;99.90;;;;;;4904278;29;19954;-73
2022/06/11 01:48:53;;;;;;;;;;;14.70;99.90;;;;;;4900454;29;19919;-73
2022/06/11 01:51:26;;;;;;;;;;;14.60;99.90;;;;;;4891180;29;19931;-73
2022/06/11 01:53:55;;;;;;;;;;;14.60;99.90;;;;;;4908589;28;19926;-73
2022/06/11 01:56:29;;;;;;;;;;;14.60;99.90;;;;;;5022030;28;20343;-72
2022/06/11 01:58:54;;;;;;;;;;;14.60;99.90;;;;;;5020803;28;20031;-72
2022/06/11 02:01:29;;;;;;;;;;;14.60;99.90;;;;;;5019768;28;20320;-72
2022/06/11 02:04:01;;;;;;;;;;;14.60;99.90;;;;;;5025097;28;19959;-73
2022/06/11 02:06:47;;;;;;;;;;;14.60;99.90;;;;;;5024575;28;19917;-73
2022/06/11 02:09:22;;;;;;;;;;;14.50;99.90;;;;;;4993964;28;19974;-73
2022/06/11 02:11:49;;;;;;;;;;;14.50;99.90;;;;;;4994660;28;19928;-73
2022/06/11 02:14:18;;;;;;;;;;;14.50;99.90;;;;;;5019671;28;19935;-73
2022/06/11 02:16:47;;;;;;;;;;;14.40;99.90;;;;;;5021882;28;20490;-73
2022/06/11 02:19:15;;;;;;;;;;;14.40;99.90;;;;;;5022743;28;19909;-73
2022/06/11 02:21:44;;;;;;;;;;;14.40;99.90;;;;;;5018684;28;19929;-73
2022/06/11 02:24:13;;;;;;;;;;;14.40;99.90;;;;;;5024737;28;19913;-73
2022/06/11 02:26:44;;;;;;;;;;;14.40;99.90;;;;;;5020269;28;20456;-73
2022/06/11 02:29:12;;;;;;;;;;;14.30;99.90;;;;;;5002304;28;19913;-73
2022/06/11 02:31:40;;;;;;;;;;;14.30;99.90;;;;;;5023295;28;19940;-73
2022/06/11 02:34:08;;;;;;;;;;;14.30;99.90;;;;;;4992986;28;19967;-73
2022/06/11 02:36:43;;;;;;;;;;;14.30;99.90;;;;;;5025747;28;20260;-75
2022/06/11 02:39:09;;;;;;;;;;;14.30;99.90;;;;;;5018847;28;19913;-74
2022/06/11 02:41:35;;;;;;;;;;;14.20;99.90;;;;;;4998553;28;20003;-74
2022/06/11 02:44:01;;;;;;;;;;;14.20;99.90;;;;;;5022033;28;20000;-73
2022/06/11 02:46:45;;;;;;;;;;;14.10;99.90;;;;;;5023153;28;21534;-74
2022/06/11 02:49:16;;;;;;;;;;;14.00;99.90;;;;;;5025037;28;19945;-73
2022/06/11 02:51:42;;;;;;;;;;;13.90;99.90;;;;;;5022302;28;19922;-74
2022/06/11 02:54:08;;;;;;;;;;;13.90;99.90;;;;;;5016283;28;20025;-73
2022/06/11 02:56:33;;;;;;;;;;;13.80;99.90;;;;;;5016980;28;19996;-73
2022/06/11 02:58:59;;;;;;;;;;;13.70;99.90;;;;;;5007617;28;19909;-73
2022/06/11 03:01:25;;;;;;;;;;;13.60;99.90;;;;;;5010061;28;19921;-73
2022/06/11 03:03:53;;;;;;;;;;;13.60;99.90;;;;;;5018759;28;19913;-74
2022/06/11 03:06:20;;;;;;;;;;;13.60;99.90;;;;;;5016717;28;19967;-73
2022/06/11 03:08:46;;;;;;;;;;;13.50;99.90;;;;;;5025315;28;19956;-73
2022/06/11 03:11:12;;;;;;;;;;;13.60;99.90;;;;;;5021466;28;19927;-74
2022/06/11 03:13:38;;;;;;;;;;;13.50;99.90;;;;;;4994553;28;19917;-74
2022/06/11 03:16:04;;;;;;;;;;;13.50;99.90;;;;;;4980816;28;20016;-73
2022/06/11 03:18:29;;;;;;;;;;;13.50;99.90;;;;;;5023029;28;20004;-73
2022/06/11 03:20:55;;;;;;;;;;;13.50;99.90;;;;;;5021090;28;19917;-73
2022/06/11 03:23:21;;;;;;;;;;;13.60;99.90;;;;;;5017370;28;19952;-73
2022/06/11 03:25:46;;;;;;;;;;;13.60;99.90;;;;;;5016335;28;19917;-73
2022/06/11 03:28:18;;;;;;;;;;;13.60;99.90;;;;;;5022956;28;19909;-74
2022/06/11 03:30:44;;;;;;;;;;;13.60;99.90;;;;;;5004712;28;20028;-74
2022/06/11 03:33:10;;;;;;;;;;;13.60;99.90;;;;;;5017172;28;19951;-74
2022/06/11 03:35:36;;;;;;;;;;;13.60;99.90;;;;;;5021243;28;19964;-74
2022/06/11 03:38:02;;;;;;;;;;;13.70;99.90;;;;;;5017043;28;19924;-74
2022/06/11 03:40:28;;;;;;;;;;;13.70;99.90;;;;;;5001003;28;19925;-73
2022/06/11 03:42:54;;;;;;;;;;;13.80;99.90;;;;;;5017386;28;20918;-73
2022/06/11 03:45:19;;;;;;;;;;;13.80;99.90;;;;;;5020196;28;19922;-74
2022/06/11 03:47:45;;;;;;;;;;;13.80;99.90;;;;;;4998919;28;20243;-73
2022/06/11 03:50:21;;;;;;;;;;;13.80;99.90;;;;;;5019676;28;19920;-74
2022/06/11 03:52:47;;;;;;;;;;;13.90;99.90;;;;;;5017168;28;19963;-73
2022/06/11 03:55:12;;;;;;;;;;;13.90;99.90;;;;;;4999111;28;19949;-75
2022/06/11 03:57:38;;;;;;;;;;;13.90;99.90;;;;;;5022930;28;19929;-73
2022/06/11 04:00:07;;;;;;;;;;;13.90;99.90;;;;;;5005597;28;19924;-74
2022/06/11 04:02:32;;;;;;;;;;;13.90;99.90;;;;;;5005119;28;19921;-74
2022/06/11 04:04:58;;;;;;;;;;;13.90;99.90;;;;;;5017848;28;19933;-73
2022/06/11 04:07:23;;;;;;;;;;;13.90;99.90;;;;;;5026974;28;19917;-73
2022/06/11 04:09:49;;;;;;;;;;;13.90;99.90;;;;;;5022119;28;19917;-74
2022/06/11 04:12:15;;;;;;;;;;;13.90;99.90;;;;;;5024032;28;20270;-74
2022/06/11 04:14:43;;;;;;;;;;;13.90;99.90;;;;;;5005554;28;19919;-74
2022/06/11 04:17:38;;;;;;;;;;;14.00;99.90;;;;;;5003844;28;20392;-74
2022/06/11 04:20:04;;;;;;;;;;;14.00;99.90;;;;;;4992588;28;19922;-74
2022/06/11 04:22:30;;;;;;;;;;;14.00;99.90;;;;;;4996733;28;19920;-74
2022/06/11 04:24:55;;;;;;;;;;;14.00;99.90;;;;;;4979616;28;19922;-74
2022/06/11 04:27:21;;;;;;;;;;;14.00;99.90;;;;;;4991256;28;19922;-73
2022/06/11 04:29:51;;;;;;;;;;;14.10;99.90;;;;;;4994489;28;21800;-74
2022/06/11 04:32:16;;;;;;;;;;;14.20;99.90;;;;;;4991960;28;20012;-74
2022/06/11 04:34:43;;;;;;;;;;;14.20;99.90;;;;;;4995254;28;19921;-74
2022/06/11 04:37:13;;;;;;;;;;;14.20;99.90;;;;;;4991023;28;20009;-73
2022/06/11 04:39:40;;;;;;;;;;;14.30;99.90;;;;;;4995376;28;20292;-74
2022/06/11 04:42:06;;;;;;;;;;;14.30;99.90;;;;;;4941977;28;19922;-74
2022/06/11 04:44:32;;;;;;;;;;;14.40;99.90;;;;;;4992152;28;19929;-74
2022/06/11 04:46:57;;;;;;;;;;;14.50;99.90;;;;;;4994704;28;19928;-73
2022/06/11 04:49:23;;;;;;;;;;;14.50;99.90;;;;;;4993067;28;19917;-74
2022/06/11 04:51:49;;;;;;;;;;;14.50;99.90;;;;;;4995990;28;19973;-74
2022/06/11 04:54:14;;;;;;;;;;;14.60;99.90;;;;;;4993454;28;19925;-74
2022/06/11 04:56:40;;;;;;;;;;;14.60;99.90;;;;;;5006300;28;19964;-74
2022/06/11 04:59:06;;;;;;;;;;;14.70;99.90;;;;;;5016211;28;19936;-74
2022/06/11 05:01:32;;;;;;;;;;;14.80;99.90;;;;;;5016252;28;20571;-74
2022/06/11 05:03:57;;;;;;;;;;;14.80;99.90;;;;;;5018210;28;19913;-74
2022/06/11 05:06:25;;;;;;;;;;;14.70;99.90;;;;;;5017525;28;19921;-72
2022/06/11 05:08:51;;;;;;;;;;;14.80;99.90;;;;;;5015768;28;19921;-74
2022/06/11 05:11:17;;;;;;;;;;;14.90;99.90;;;;;;5015263;28;19917;-73
2022/06/11 05:13:42;;;;;;;;;;;14.90;99.90;;;;;;4996305;28;19913;-74
2022/06/11 05:16:08;;;;;;;;;;;15.00;99.90;;;;;;5015750;28;20000;-74
2022/06/11 05:18:34;;;;;;;;;;;15.00;99.90;;;;;;5018154;28;19917;-74
2022/06/11 05:21:00;;;;;;;;;;;15.20;99.90;;;;;;5002986;28;19925;-73
2022/06/11 05:23:26;;;;;;;;;;;15.20;99.90;;;;;;5020700;28;19962;-74
2022/06/11 05:25:51;;;;;;;;;;;15.20;99.90;;;;;;5016582;28;21251;-73
2022/06/11 05:28:19;;;;;;;;;;;15.30;99.90;;;;;;5014724;28;19917;-74
2022/06/11 05:30:45;;;;;;;;;;;15.40;99.90;;;;;;5016297;28;19966;-74
2022/06/11 05:33:11;;;;;;;;;;;15.40;99.90;;;;;;5015397;28;20422;-74
2022/06/11 05:35:37;;;;;;;;;;;15.50;99.90;;;;;;5017892;28;19913;-73
2022/06/11 05:38:05;;;;;;;;;;;15.50;99.90;;;;;;5021760;28;19918;-73
2022/06/11 05:40:32;;;;;;;;;;;15.50;99.90;;;;;;5016122;28;20499;-74
2022/06/11 05:42:58;;;;;;;;;;;15.50;99.90;;;;;;5024072;28;19939;-73
2022/06/11 05:45:31;;;;;;;;;;;15.60;99.90;;;;;;5024655;28;20015;-73
2022/06/11 05:47:58;;;;;;;;;;;15.60;99.90;;;;;;5006533;28;19995;-73
2022/06/11 05:50:26;;;;;;;;;;;15.60;99.90;;;;;;5039762;28;20016;-73
2022/06/11 05:52:53;;;;;;;;;;;15.60;99.90;;;;;;5030517;28;20627;-73
2022/06/11 05:55:20;;;;;;;;;;;15.70;99.90;;;;;;5010262;28;19913;-73
2022/06/11 05:57:47;;;;;;;;;;;15.80;99.90;;;;;;5007657;28;19968;-74
2022/06/11 06:00:14;;;;;;;;;;;15.80;99.90;;;;;;4984907;28;19921;-74
2022/06/11 06:02:40;;;;;;;;;;;15.80;99.90;;;;;;5011777;28;20004;-74
2022/06/11 06:05:06;;;;;;;;;;;15.80;99.90;;;;;;5012308;28;19913;-73
2022/06/11 06:07:32;;;;;;;;;;;15.90;99.90;;;;;;5011804;28;19913;-74
2022/06/11 06:09:57;;;;;;;;;;;15.80;99.90;;;;;;5014407;28;19991;-74
2022/06/11 06:12:23;;;;;;;;;;;15.90;99.90;;;;;;4987084;28;19922;-73
2022/06/11 06:14:49;;;;;;;;;;;15.80;99.90;;;;;;5009065;28;19917;-74
2022/06/11 06:17:14;;;;;;;;;;;15.90;99.90;;;;;;4900227;28;19921;-73
2022/06/11 06:19:40;;;;;;;;;;;16.00;99.90;;;;;;4889272;28;21748;-74
2022/06/11 06:22:06;;;;;;;;;;;16.10;99.90;;;;;;4875858;28;19929;-74
2022/06/11 06:24:32;;;;;;;;;;;16.00;99.90;;;;;;4897356;28;19944;-73
2022/06/11 06:26:58;;;;;;;;;;;16.00;99.90;;;;;;4899336;28;19928;-73
2022/06/11 06:29:23;;;;;;;;;;;16.10;99.90;;;;;;4892813;28;19922;-74
2022/06/11 06:31:49;;;;;;;;;;;16.20;99.90;;;;;;4896542;28;20328;-74
2022/06/11 06:34:15;;;;;;;;;;;16.10;99.90;;;;;;4899536;28;19921;-74
2022/06/11 06:36:40;;;;;;;;;;;16.20;99.90;;;;;;4880630;28;19917;-73
2022/06/11 06:39:06;;;;;;;;;;;16.30;99.90;;;;;;4876895;28;20694;-74
2022/06/11 06:41:32;;;;;;;;;;;16.30;99.90;;;;;;4882022;28;19921;-73
2022/06/11 06:43:57;;;;;;;;;;;16.40;99.90;;;;;;4902630;28;20317;-73
2022/06/11 06:46:23;;;;;;;;;;;16.60;99.90;;;;;;4898352;28;19964;-74
2022/06/11 06:48:48;;;;;;;;;;;16.50;99.90;;;;;;4906084;28;19921;-74
2022/06/11 06:51:14;;;;;;;;;;;16.50;99.90;;;;;;4904731;28;19928;-75
2022/06/11 06:53:40;;;;;;;;;;;16.50;99.90;;;;;;4905828;28;19918;-73
2022/06/11 06:56:06;;;;;;;;;;;16.50;99.90;;;;;;4902335;28;19921;-75
2022/06/11 06:58:33;;;;;;;;;;;16.60;99.90;;;;;;4896277;28;20496;-74
2022/06/11 07:00:59;;;;;;;;;;;16.60;99.90;;;;;;4899050;28;20724;-74
2022/06/11 07:03:24;;;;;;;;;;;16.60;99.90;;;;;;4899038;28;19929;-74
2022/06/11 07:05:50;;;;;;;;;;;16.70;99.90;;;;;;4900008;28;19960;-74
2022/06/11 07:08:16;;;;;;;;;;;16.80;99.90;;;;;;4898221;28;19987;-74
2022/06/11 07:10:46;;;;;;;;;;;16.90;99.90;;;;;;4880210;28;19922;-74
2022/06/11 07:13:11;;;;;;;;;;;16.90;99.90;;;;;;4898036;28;19917;-74
2022/06/11 07:15:37;;;;;;;;;;;16.90;99.90;;;;;;4921350;28;19971;-77
2022/06/11 07:18:08;;;;;;;;;;;16.90;99.90;;;;;;4905365;28;20210;-73
2022/06/11 07:20:34;;;;;;;;;;;17.00;99.90;;;;;;4891091;28;19929;-74
2022/06/11 07:23:02;;;;;;;;;;;17.00;99.90;;;;;;4895563;28;19948;-74
2022/06/11 07:25:28;;;;;;;;;;;17.10;99.90;;;;;;4889594;28;20325;-74
2022/06/11 07:27:59;;;;;;;;;;;17.20;99.90;;;;;;4887240;28;19984;-73
2022/06/11 07:30:25;;;;;;;;;;;17.30;99.90;;;;;;4892674;28;19921;-73
2022/06/11 07:32:53;;;;;;;;;;;17.40;99.90;;;;;;4870360;28;20768;-74
2022/06/11 07:35:18;;;;;;;;;;;17.50;99.90;;;;;;4888183;28;19967;-74
2022/06/11 07:37:45;;;;;;;;;;;17.60;99.90;;;;;;4888762;28;19922;-73
2022/06/11 07:40:11;;;;;;;;;;;17.70;99.90;;;;;;4893778;28;20853;-74
2022/06/11 07:42:36;;;;;;;;;;;17.80;99.90;;;;;;5011319;28;19983;-74
2022/06/11 07:45:02;;;;;;;;;;;17.90;99.90;;;;;;5015464;28;20040;-75
2022/06/11 07:48:01;;;;;;;;;;;18.00;99.90;;;;;;5006167;28;20313;-73
2022/06/11 07:50:23;;;;;;;;;;;18.20;99.90;;;;;;5009809;28;20012;-74
2022/06/11 07:52:49;;;;;;;;;;;18.50;99.90;;;;;;5010422;28;19981;-74
2022/06/11 07:55:15;;;;;;;;;;;18.80;99.90;;;;;;5005401;28;20032;-73
2022/06/11 07:57:41;;;;;;;;;;;19.10;99.90;;;;;;5004453;28;20343;-74
2022/06/11 08:00:09;;;;;;;;;;;19.50;99.90;;;;;;5008984;28;19971;-75
2022/06/11 08:02:34;;;;;;;;;;;19.80;99.90;;;;;;5009232;28;19936;-75
2022/06/11 08:05:00;;;;;;;;;;;20.00;99.90;;;;;;5009821;28;20372;-74
2022/06/11 08:07:27;;;;;;;;;;;20.40;99.90;;;;;;5009890;28;20328;-74
2022/06/11 08:09:53;;;;;;;;;;;20.50;99.90;;;;;;5001713;28;19918;-74
2022/06/11 08:12:19;;;;;;;;;;;20.70;99.90;;;;;;4993266;28;19944;-73
2022/06/11 08:14:44;;;;;;;;;;;20.90;99.90;;;;;;5009677;28;19921;-74
2022/06/11 08:17:10;;;;;;;;;;;21.10;99.90;;;;;;4995505;28;20301;-74
2022/06/11 08:19:36;;;;;;;;;;;21.10;99.90;;;;;;4999522;28;20006;-74
2022/06/11 08:22:01;;;;;;;;;;;21.20;99.90;;;;;;5007996;28;19917;-74
2022/06/11 08:24:27;;;;;;;;;;;21.50;99.90;;;;;;5009696;28;19924;-73
2022/06/11 08:26:53;;;;;;;;;;;21.70;99.90;;;;;;5010268;28;19917;-74
2022/06/11 08:29:18;;;;;;;;;;;22.00;99.90;;;;;;4992234;28;19929;-73
2022/06/11 08:31:44;;;;;;;;;;;21.90;99.90;;;;;;5002217;28;20008;-74
2022/06/11 08:34:09;;;;;;;;;;;22.20;99.90;;;;;;5011763;28;19960;-74
2022/06/11 08:36:35;;;;;;;;;;;22.30;99.90;;;;;;5010231;28;19918;-73
2022/06/11 08:39:00;;;;;;;;;;;22.50;99.90;;;;;;5008866;28;19909;-74
2022/06/11 08:41:35;;;;;;;;;;;22.60;99.90;;;;;;4973094;28;19925;-73
2022/06/11 08:44:01;;;;;;;;;;;22.70;99.90;;;;;;4998878;28;19909;-74
2022/06/11 08:46:32;;;;;;;;;;;23.00;99.00;;;;;;5004283;28;20249;-74
2022/06/11 08:49:03;;;;;;;;;;;23.10;98.60;;;;;;5008066;28;19953;-74
2022/06/11 08:51:35;;;;;;;;;;;23.00;99.80;;;;;;5008010;28;19924;-75
2022/06/11 08:54:26;;;;;;;;;;;23.30;98.70;;;;;;5006594;28;20237;-73
2022/06/11 08:56:55;;;;;;;;;;;23.40;99.60;;;;;;4999894;28;19928;-74
2022/06/11 08:59:23;;;;;;;;;;;23.30;99.90;;;;;;4966496;28;20328;-74
2022/06/11 09:01:57;;;;;;;;;;;23.70;99.20;;;;;;4908233;28;19944;-75
2022/06/11 09:04:31;;;;;;;;;;;23.60;98.50;;;;;;4930412;28;20340;-73
2022/06/11 09:07:04;;;;;;;;;;;23.80;99.60;;;;;;4932420;28;19920;-74
2022/06/11 09:09:35;;;;;;;;;;;24.00;98.20;;;;;;4999758;28;19922;-74
2022/06/11 09:12:19;;;;;;;;;;;24.30;99.30;;;;;;4996928;28;19914;-74
2022/06/11 09:14:52;;;;;;;;;;;24.30;99.20;;;;;;5014190;28;19918;-74
2022/06/11 09:17:44;;;;;;;;;;;24.20;99.70;;;;;;5002170;28;19937;-74
2022/06/11 09:20:15;;;;;;;;;;;24.10;98.10;;;;;;4999908;28;19914;-74
2022/06/11 09:22:41;;;;;;;;;;;24.40;98.60;;;;;;4967777;28;19929;-76
2022/06/11 09:25:17;;;;;;;;;;;24.60;97.20;;;;;;4987634;28;19921;-75
2022/06/11 09:27:46;;;;;;;;;;;24.70;98.50;;;;;;4997437;28;19913;-74
2022/06/11 09:30:14;;;;;;;;;;;24.80;97.50;;;;;;5001275;28;19928;-74
2022/06/11 09:32:40;;;;;;;;;;;25.10;96.80;;;;;;5001985;28;20305;-74
2022/06/11 09:35:06;;;;;;;;;;;25.20;99.00;;;;;;5001052;28;19940;-74
2022/06/11 09:37:41;;;;;;;;;;;25.20;98.20;;;;;;4998424;28;19914;-74
2022/06/11 09:40:11;;;;;;;;;;;25.00;97.70;;;;;;4998702;28;19913;-75
2022/06/11 09:42:56;;;;;;;;;;;24.70;97.90;;;;;;4960707;28;19961;-74
2022/06/11 09:45:22;;;;;;;;;;;24.70;96.20;;;;;;5003712;28;19960;-73
2022/06/11 09:47:53;;;;;;;;;;;24.90;97.70;;;;;;5013721;28;19949;-76
2022/06/11 09:50:35;;;;;;;;;;;24.80;96.50;;;;;;5012942;28;19940;-75
2022/06/11 09:53:00;;;;;;;;;;;25.00;97.30;;;;;;5014293;28;19936;-75
2022/06/11 09:55:42;;;;;;;;;;;25.00;95.50;;;;;;5011934;28;20357;-74
2022/06/11 09:58:17;;;;;;;;;;;25.00;95.50;;;;;;5020680;28;20205;-74
2022/06/11 10:00:48;;;;;;;;;;;24.80;95.80;;;;;;5006006;28;19925;-77
2022/06/11 10:03:31;;;;;;;;;;;24.40;96.20;;;;;;5021449;28;19917;-76
2022/06/11 10:06:00;;;;;;;;;;;24.20;97.50;;;;;;5018828;28;19948;-76
2022/06/11 10:08:29;;;;;;;;;;;24.50;99.70;;;;;;5001830;28;19909;-76
2022/06/11 10:10:55;;;;;;;;;;;24.10;97.40;;;;;;5020384;28;19918;-76
2022/06/11 10:13:32;;;;;;;;;;;24.20;97.60;;;;;;4999213;28;19913;-76
2022/06/11 10:16:01;;;;;;;;;;;24.40;98.10;;;;;;5027687;28;20044;-76
2022/06/11 10:18:28;;;;;;;;;;;24.60;97.00;;;;;;4990332;28;19921;-77
2022/06/11 10:20:58;;;;;;;;;;;24.50;97.20;;;;;;4909085;28;21256;-74
2022/06/11 10:23:36;;;;;;;;;;;24.80;98.50;;;;;;4912497;28;19921;-75
2022/06/11 10:26:22;;;;;;;;;;;24.80;97.70;;;;;;4908085;28;21002;-74
2022/06/11 10:29:03;;;;;;;;;;;24.50;98.30;;;;;;4890636;28;19917;-74
2022/06/11 10:31:31;;;;;;;;;;;24.70;99.20;;;;;;4906159;28;20317;-74
2022/06/11 10:34:09;;;;;;;;;;;24.90;97.50;;;;;;4910387;28;20194;-74
2022/06/11 10:36:43;;;;;;;;;;;24.90;97.80;;;;;;4909079;28;20595;-74
2022/06/11 10:39:12;;;;;;;;;;;25.30;96.60;;;;;;4907059;28;20845;-74
2022/06/11 10:41:41;;;;;;;;;;;25.60;97.10;;;;;;4908526;28;24533;-74
2022/06/11 10:44:21;;;;;;;;;;;25.90;94.60;;;;;;4892192;28;20742;-74
2022/06/11 10:46:47;;;;;;;;;;;26.00;96.70;;;;;;4908833;28;19924;-74
2022/06/11 10:49:16;;;;;;;;;;;26.00;95.50;;;;;;4910557;28;20609;-75
2022/06/11 10:51:44;;;;;;;;;;;25.90;96.00;;;;;;4910337;28;19923;-74
2022/06/11 10:54:19;;;;;;;;;;;26.00;95.50;;;;;;4895457;28;19917;-75
2022/06/11 10:56:49;;;;;;;;;;;26.10;95.80;;;;;;4892351;28;20705;-75
2022/06/11 10:59:38;;;;;;;;;;;26.30;95.70;;;;;;4913293;28;19928;-75
2022/06/11 11:02:20;;;;;;;;;;;26.00;92.70;;;;;;4890505;28;20386;-75
2022/06/11 11:05:12;;;;;;;;;;;26.00;93.60;;;;;;4890548;28;19928;-74
2022/06/11 11:07:43;;;;;;;;;;;26.30;95.90;;;;;;4903544;28;19941;-75
2022/06/11 11:10:20;;;;;;;;;;;26.60;94.70;;;;;;4909684;28;19995;-75
2022/06/11 11:12:45;;;;;;;;;;;26.60;96.10;;;;;;4893128;28;20040;-74
2022/06/11 11:15:16;;;;;;;;;;;26.70;95.70;;;;;;4910623;28;19925;-74
2022/06/11 11:18:01;;;;;;;;;;;26.40;95.40;;;;;;4929472;28;19924;-76
2022/06/11 11:20:56;;;;;;;;;;;26.40;94.10;;;;;;4913226;28;24179;-75
2022/06/11 11:23:33;;;;;;;;;;;26.60;94.20;;;;;;4849570;29;20453;-75
2022/06/11 11:26:02;;;;;;;;;;;26.80;92.70;;;;;;4833584;29;19918;-74
2022/06/11 11:28:29;;;;;;;;;;;26.50;95.10;;;;;;4846928;29;21212;-74
2022/06/11 11:30:57;;;;;;;;;;;26.50;96.10;;;;;;4849079;29;19919;-74
2022/06/11 11:33:28;;;;;;;;;;;26.80;95.30;;;;;;4833098;28;24045;-74
2022/06/11 11:36:10;;;;;;;;;;;27.20;96.40;;;;;;4845605;29;19919;-74
2022/06/11 11:38:36;;;;;;;;;;;27.30;94.60;;;;;;4844137;29;24296;-75
2022/06/11 11:41:03;;;;;;;;;;;27.20;94.20;;;;;;4849423;29;19978;-74
2022/06/11 11:43:35;;;;;;;;;;;26.90;95.10;;;;;;4851449;29;20041;-75
2022/06/11 11:46:02;;;;;;;;;;;27.10;94.10;;;;;;4845698;29;19918;-75
2022/06/11 11:48:28;;;;;;;;;;;26.70;94.60;;;;;;4839417;29;19918;-75
2022/06/11 11:50:55;;;;;;;;;;;26.50;95.50;;;;;;4812971;29;20397;-76
2022/06/11 11:53:24;;;;;;;;;;;26.60;95.50;;;;;;4820124;29;20005;-75
2022/06/11 11:55:55;;;;;;;;;;;26.50;93.50;;;;;;4849891;29;20384;-75
2022/06/11 11:58:28;;;;;;;;;;;25.80;94.60;;;;;;4837323;29;19991;-75
2022/06/11 12:00:55;;;;;;;;;;;26.10;96.80;;;;;;4897251;28;20006;-75
2022/06/11 12:03:29;;;;;;;;;;;26.40;96.60;;;;;;4904772;28;20032;-74
2022/06/11 12:05:56;;;;;;;;;;;26.70;96.60;;;;;;4886015;28;20028;-74
2022/06/11 12:08:29;;;;;;;;;;;27.10;96.60;;;;;;4903086;28;19968;-74
2022/06/11 12:10:57;;;;;;;;;;;27.20;96.30;;;;;;4911816;28;19925;-74
2022/06/11 12:13:43;;;;;;;;;;;26.70;94.90;;;;;;4908010;28;19918;-74
2022/06/11 12:16:15;;;;;;;;;;;26.90;95.10;;;;;;4909619;28;20329;-75
2022/06/11 12:18:43;;;;;;;;;;;26.30;94.00;;;;;;4909400;28;19917;-75
2022/06/11 12:21:18;;;;;;;;;;;25.80;95.10;;;;;;4903021;28;19921;-74
2022/06/11 12:23:49;;;;;;;;;;;25.20;96.00;;;;;;4964741;28;19999;-74
2022/06/11 12:26:25;;;;;;;;;;;25.00;98.20;;;;;;5008685;28;20700;-75
2022/06/11 12:28:52;;;;;;;;;;;24.80;96.90;;;;;;5008059;28;19917;-74
2022/06/11 12:31:17;;;;;;;;;;;25.30;97.70;;;;;;5002700;28;19917;-74
2022/06/11 12:33:44;;;;;;;;;;;25.60;97.40;;;;;;5008850;28;19923;-73
2022/06/11 12:36:15;;;;;;;;;;;25.40;96.60;;;;;;5006910;28;20423;-74
2022/06/11 12:38:46;;;;;;;;;;;25.30;98.20;;;;;;5009755;28;20031;-73
2022/06/11 12:41:12;;;;;;;;;;;25.70;98.70;;;;;;5007741;28;19924;-74
2022/06/11 12:43:47;;;;;;;;;;;26.10;98.10;;;;;;5001270;28;19917;-74
2022/06/11 12:46:12;;;;;;;;;;;26.40;96.70;;;;;;5010508;28;19981;-74
2022/06/11 12:48:45;;;;;;;;;;;26.70;96.20;;;;;;5004436;28;19929;-74
2022/06/11 12:51:13;;;;;;;;;;;26.70;96.40;;;;;;5009578;28;19914;-74
2022/06/11 12:53:45;;;;;;;;;;;26.60;94.50;;;;;;5000731;28;19918;-74
2022/06/11 12:56:30;;;;;;;;;;;26.10;95.80;;;;;;5002606;28;21657;-74
2022/06/11 12:58:56;;;;;;;;;;;25.80;95.30;;;;;;5005121;28;19913;-75
2022/06/11 13:01:31;;;;;;;;;;;25.30;95.60;;;;;;4997728;28;20267;-76
2022/06/11 13:03:56;;;;;;;;;;;25.30;95.80;;;;;;5012880;28;19917;-74
2022/06/11 13:06:30;;;;;;;;;;;25.40;97.00;;;;;;5006052;28;19917;-73
2022/06/11 13:09:15;;;;;;;;;;;25.40;97.70;;;;;;5011791;28;19913;-75
2022/06/11 13:11:41;;;;;;;;;;;25.30;96.30;;;;;;5010222;28;19924;-74
2022/06/11 13:14:22;;;;;;;;;;;25.10;96.60;;;;;;5010336;28;20236;-74
2022/06/11 13:16:59;;;;;;;;;;;24.90;98.40;;;;;;5006154;28;20600;-75
2022/06/11 13:19:27;;;;;;;;;;;25.00;98.40;;;;;;5011165;28;20655;-74
2022/06/11 13:21:55;;;;;;;;;;;25.10;97.10;;;;;;5006930;28;19940;-74
2022/06/11 13:24:21;;;;;;;;;;;25.20;98.20;;;;;;4972428;28;20289;-76
2022/06/11 13:26:51;;;;;;;;;;;24.90;98.40;;;;;;5008183;28;19933;-74
2022/06/11 13:29:35;;;;;;;;;;;25.10;97.30;;;;;;5008201;28;19914;-74
2022/06/11 13:32:02;;;;;;;;;;;25.30;99.00;;;;;;5013490;28;19932;-75
2022/06/11 13:34:34;;;;;;;;;;;25.60;97.10;;;;;;5013465;28;19990;-76
2022/06/11 13:37:19;;;;;;;;;;;25.30;96.80;;;;;;5015405;28;19917;-75
2022/06/11 13:39:54;;;;;;;;;;;25.60;97.10;;;;;;4955565;28;20004;-74
2022/06/11 13:42:25;;;;;;;;;;;25.80;94.00;;;;;;4891654;28;23000;-74
2022/06/11 13:45:10;;;;;;;;;;;25.70;97.60;;;;;;4889748;28;19918;-74
2022/06/11 13:47:58;;;;;;;;;;;25.70;94.70;;;;;;4889361;28;20155;-74
2022/06/11 13:50:27;;;;;;;;;;;25.70;95.40;;;;;;4892787;28;20241;-75
2022/06/11 13:55:41;;;;;;;;;;;25.50;96.60;;;;;;4888881;28;19936;-74
2022/06/11 13:58:33;;;;;;;;;;;25.20;95.80;;;;;;4908733;28;19953;-75
2022/06/11 14:01:11;;;;;;;;;;;25.30;96.90;;;;;;4887316;28;19926;-74
2022/06/11 14:04:05;;;;;;;;;;;25.30;97.90;;;;;;4893029;28;20761;-74
2022/06/11 14:06:31;;;;;;;;;;;25.20;95.40;;;;;;4888845;28;19917;-73
2022/06/11 14:09:02;;;;;;;;;;;25.30;95.70;;;;;;4892121;28;19917;-76
2022/06/11 14:11:28;;;;;;;;;;;25.20;96.00;;;;;;4892968;28;19918;-75
2022/06/11 14:13:53;;;;;;;;;;;25.10;95.50;;;;;;4890838;28;19924;-73
2022/06/11 14:16:31;;;;;;;;;;;24.80;96.50;;;;;;4889147;28;19918;-73
2022/06/11 14:18:57;;;;;;;;;;;25.00;96.00;;;;;;4887377;28;19924;-73
2022/06/11 14:21:38;;;;;;;;;;;25.00;97.00;;;;;;4889598;28;19925;-74
2022/06/11 14:24:08;;;;;;;;;;;24.90;95.50;;;;;;4900781;28;20316;-74
2022/06/11 14:26:43;;;;;;;;;;;24.90;96.20;;;;;;4912214;28;19924;-74
2022/06/11 14:29:16;;;;;;;;;;;24.90;95.50;;;;;;4909339;28;20039;-74
2022/06/11 14:31:53;;;;;;;;;;;24.80;93.70;;;;;;4911166;28;20232;-74
2022/06/11 14:34:20;;;;;;;;;;;24.80;95.30;;;;;;4913906;28;19917;-74